sensor_id;sensor_type;location;lat;lon;timestamp;temperature;humidity
24992;DHT22;13014;48.356;10.884;2022-10-13T00:00:24;8.10;99.90
24992;DHT22;13014;48.356;10.884;2022-10-13T00:00:55;8.10;99.90
24992;DHT22;13014;48.356;10.884;2022-10-13T00:01:29;8.10;99.90
24992;DHT22;13014;48.356;10.884;2022-10-13T00:01:59;8.10;99.90
24992;DHT22;13014;48.356;10.884;2022-10-13T00:02:30;8.10;99.90
24992;DHT22;13014;48.356;10.884;2022-10-13T00:03:01;8.10;99.90
24992;DHT22;13014;48.356;10.884;2022-10-13T00:03:41;8.10;99.90
24992;DHT22;13014;48.356;10.884;2022-10-13T00:04:15;8.10;99.90
24992;DHT22;13014;48.356;10.884;2022-10-13T00:04:46;8.10;99.90
24992;DHT22;13014;48.356;10.884;2022-10-13T00:05:16;8.10;99.90
24992;DHT22;13014;48.356;10.884;2022-10-13T00:05:48;8.10;99.90
24992;DHT22;13014;48.356;10.884;2022-10-13T00:07:06;8.10;99.90
24992;DHT22;13014;48.356;10.884;2022-10-13T00:08:33;8.00;99.90
24992;DHT22;13014;48.356;10.884;2022-10-13T00:09:05;8.00;99.90
24992;DHT22;13014;48.356;10.884;2022-10-13T00:10:37;8.00;99.90
24992;DHT22;13014;48.356;10.884;2022-10-13T00:11:33;8.00;99.90
24992;DHT22;13014;48.356;10.884;2022-10-13T00:12:04;8.00;99.90
24992;DHT22;13014;48.356;10.884;2022-10-13T00:12:38;7.90;99.90
24992;DHT22;13014;48.356;10.884;2022-10-13T00:13:32;7.90;99.90
24992;DHT22;13014;48.356;10.884;2022-10-13T00:14:17;7.90;99.90
24992;DHT22;13014;48.356;10.884;2022-10-13T00:15:08;7.90;99.90
24992;DHT22;13014;48.356;10.884;2022-10-13T00:15:45;7.90;99.90
24992;DHT22;13014;48.356;10.884;2022-10-13T00:16:41;7.90;99.90
24992;DHT22;13014;48.356;10.884;2022-10-13T00:17:12;7.90;99.90
24992;DHT22;13014;48.356;10.884;2022-10-13T00:17:43;7.90;99.90
24992;DHT22;13014;48.356;10.884;2022-10-13T00:18:14;7.90;99.90
24992;DHT22;13014;48.356;10.884;2022-10-13T00:19:41;7.90;99.90
24992;DHT22;13014;48.356;10.884;2022-10-13T00:20:57;7.90;99.90
24992;DHT22;13014;48.356;10.884;2022-10-13T00:21:10;7.90;99.90
24992;DHT22;13014;48.356;10.884;2022-10-13T00:21:41;7.90;99.90
24992;DHT22;13014;48.356;10.884;2022-10-13T00:22:14;7.90;99.90
24992;DHT22;13014;48.356;10.884;2022-10-13T00:22:45;7.90;99.90
24992;DHT22;13014;48.356;10.884;2022-10-13T00:23:16;7.90;99.90
24992;DHT22;13014;48.356;10.884;2022-10-13T00:23:47;7.90;99.90
24992;DHT22;13014;48.356;10.884;2022-10-13T00:24:21;7.90;99.90
24992;DHT22;13014;48.356;10.884;2022-10-13T00:24:51;7.90;99.90
24992;DHT22;13014;48.356;10.884;2022-10-13T00:25:22;7.90;99.90
24992;DHT22;13014;48.356;10.884;2022-10-13T00:25:53;7.90;99.90
24992;DHT22;13014;48.356;10.884;2022-10-13T00:26:24;7.90;99.90
24992;DHT22;13014;48.356;10.884;2022-10-13T00:26:55;7.90;99.90
24992;DHT22;13014;48.356;10.884;2022-10-13T00:27:26;7.90;99.90
24992;DHT22;13014;48.356;10.884;2022-10-13T00:27:59;7.90;99.90
24992;DHT22;13014;48.356;10.884;2022-10-13T00:28:30;8.00;99.90
24992;DHT22;13014;48.356;10.884;2022-10-13T00:29:01;8.00;99.90
24992;DHT22;13014;48.356;10.884;2022-10-13T00:29:31;8.00;99.90
24992;DHT22;13014;48.356;10.884;2022-10-13T00:30:02;8.00;99.90
24992;DHT22;13014;48.356;10.884;2022-10-13T00:30:34;8.00;99.90
24992;DHT22;13014;48.356;10.884;2022-10-13T00:32:04;8.00;99.90
24992;DHT22;13014;48.356;10.884;2022-10-13T00:32:34;8.00;99.90
24992;DHT22;13014;48.356;10.884;2022-10-13T00:33:05;8.00;99.90
24992;DHT22;13014;48.356;10.884;2022-10-13T00:33:36;8.00;99.90
24992;DHT22;13014;48.356;10.884;2022-10-13T00:34:07;8.00;99.90
24992;DHT22;13014;48.356;10.884;2022-10-13T00:34:38;8.00;99.90
24992;DHT22;13014;48.356;10.884;2022-10-13T00:35:09;8.10;99.90
24992;DHT22;13014;48.356;10.884;2022-10-13T00:35:44;8.10;99.90
24992;DHT22;13014;48.356;10.884;2022-10-13T00:36:14;8.00;99.90
24992;DHT22;13014;48.356;10.884;2022-10-13T00:36:45;8.00;99.90
24992;DHT22;13014;48.356;10.884;2022-10-13T00:37:16;8.10;99.90
24992;DHT22;13014;48.356;10.884;2022-10-13T00:37:46;8.10;99.90
24992;DHT22;13014;48.356;10.884;2022-10-13T00:38:18;8.10;99.90
24992;DHT22;13014;48.356;10.884;2022-10-13T00:38:49;8.00;99.90
24992;DHT22;13014;48.356;10.884;2022-10-13T00:39:19;8.00;99.90
24992;DHT22;13014;48.356;10.884;2022-10-13T00:39:50;8.10;99.90
24992;DHT22;13014;48.356;10.884;2022-10-13T00:40:20;8.10;99.90
24992;DHT22;13014;48.356;10.884;2022-10-13T00:40:52;8.10;99.90
24992;DHT22;13014;48.356;10.884;2022-10-13T00:41:23;8.10;99.90
24992;DHT22;13014;48.356;10.884;2022-10-13T00:41:54;8.10;99.90
24992;DHT22;13014;48.356;10.884;2022-10-13T00:42:25;8.10;99.90
24992;DHT22;13014;48.356;10.884;2022-10-13T00:42:56;8.10;99.90
24992;DHT22;13014;48.356;10.884;2022-10-13T00:43:46;8.10;99.90
24992;DHT22;13014;48.356;10.884;2022-10-13T00:45:11;8.10;99.90
24992;DHT22;13014;48.356;10.884;2022-10-13T00:45:49;8.10;99.90
24992;DHT22;13014;48.356;10.884;2022-10-13T00:46:32;8.10;99.90
24992;DHT22;13014;48.356;10.884;2022-10-13T00:47:03;8.00;99.90
24992;DHT22;13014;48.356;10.884;2022-10-13T00:47:35;8.00;99.90
24992;DHT22;13014;48.356;10.884;2022-10-13T00:48:07;8.00;99.90
24992;DHT22;13014;48.356;10.884;2022-10-13T00:48:38;8.00;99.90
24992;DHT22;13014;48.356;10.884;2022-10-13T00:49:10;8.10;99.90
24992;DHT22;13014;48.356;10.884;2022-10-13T00:49:42;8.10;99.90
24992;DHT22;13014;48.356;10.884;2022-10-13T00:50:17;8.10;99.90
24992;DHT22;13014;48.356;10.884;2022-10-13T00:50:49;8.00;99.90
24992;DHT22;13014;48.356;10.884;2022-10-13T00:51:20;8.00;99.90
24992;DHT22;13014;48.356;10.884;2022-10-13T00:51:51;8.00;99.90
24992;DHT22;13014;48.356;10.884;2022-10-13T00:52:27;8.00;99.90
24992;DHT22;13014;48.356;10.884;2022-10-13T00:52:59;8.00;99.90
24992;DHT22;13014;48.356;10.884;2022-10-13T00:53:31;8.00;99.90
24992;DHT22;13014;48.356;10.884;2022-10-13T00:54:04;8.00;99.90
24992;DHT22;13014;48.356;10.884;2022-10-13T00:54:35;8.00;99.90
24992;DHT22;13014;48.356;10.884;2022-10-13T00:55:06;8.00;99.90
24992;DHT22;13014;48.356;10.884;2022-10-13T00:55:49;8.00;99.90
24992;DHT22;13014;48.356;10.884;2022-10-13T00:56:21;8.00;99.90
24992;DHT22;13014;48.356;10.884;2022-10-13T00:56:53;8.00;99.90
24992;DHT22;13014;48.356;10.884;2022-10-13T00:57:23;8.00;99.90
24992;DHT22;13014;48.356;10.884;2022-10-13T00:57:54;8.00;99.90
24992;DHT22;13014;48.356;10.884;2022-10-13T00:58:25;8.00;99.90
24992;DHT22;13014;48.356;10.884;2022-10-13T00:59:00;8.00;99.90
24992;DHT22;13014;48.356;10.884;2022-10-13T00:59:33;7.90;99.90
24992;DHT22;13014;48.356;10.884;2022-10-13T01:00:17;8.00;99.90
24992;DHT22;13014;48.356;10.884;2022-10-13T01:00:48;8.00;99.90
24992;DHT22;13014;48.356;10.884;2022-10-13T01:01:19;8.00;99.90
24992;DHT22;13014;48.356;10.884;2022-10-13T01:01:50;8.00;99.90
24992;DHT22;13014;48.356;10.884;2022-10-13T01:02:36;8.00;99.90
24992;DHT22;13014;48.356;10.884;2022-10-13T01:03:07;8.00;99.90
24992;DHT22;13014;48.356;10.884;2022-10-13T01:03:38;8.00;99.90
24992;DHT22;13014;48.356;10.884;2022-10-13T01:04:09;8.00;99.90
24992;DHT22;13014;48.356;10.884;2022-10-13T01:04:41;8.00;99.90
24992;DHT22;13014;48.356;10.884;2022-10-13T01:05:16;8.00;99.90
24992;DHT22;13014;48.356;10.884;2022-10-13T01:05:47;8.00;99.90
24992;DHT22;13014;48.356;10.884;2022-10-13T01:06:19;8.10;99.90
24992;DHT22;13014;48.356;10.884;2022-10-13T01:06:50;8.10;99.90
24992;DHT22;13014;48.356;10.884;2022-10-13T01:07:21;8.00;99.90
24992;DHT22;13014;48.356;10.884;2022-10-13T01:08:27;8.00;99.90
24992;DHT22;13014;48.356;10.884;2022-10-13T01:08:59;8.10;99.90
24992;DHT22;13014;48.356;10.884;2022-10-13T01:09:45;8.10;99.90
24992;DHT22;13014;48.356;10.884;2022-10-13T01:10:18;8.10;99.90
24992;DHT22;13014;48.356;10.884;2022-10-13T01:12:58;8.10;99.90
24992;DHT22;13014;48.356;10.884;2022-10-13T01:13:49;8.10;99.90
24992;DHT22;13014;48.356;10.884;2022-10-13T01:14:56;8.10;99.90
24992;DHT22;13014;48.356;10.884;2022-10-13T01:16:16;8.10;99.90
24992;DHT22;13014;48.356;10.884;2022-10-13T01:17:03;8.10;99.90
24992;DHT22;13014;48.356;10.884;2022-10-13T01:17:42;8.10;99.90
24992;DHT22;13014;48.356;10.884;2022-10-13T01:19:08;8.10;99.90
24992;DHT22;13014;48.356;10.884;2022-10-13T01:21:27;8.10;99.90
24992;DHT22;13014;48.356;10.884;2022-10-13T01:30:22;8.10;99.90
24992;DHT22;13014;48.356;10.884;2022-10-13T01:31:07;8.10;99.90
24992;DHT22;13014;48.356;10.884;2022-10-13T01:31:41;8.10;99.90
24992;DHT22;13014;48.356;10.884;2022-10-13T01:34:25;8.20;99.90
24992;DHT22;13014;48.356;10.884;2022-10-13T01:35:10;8.10;99.90
24992;DHT22;13014;48.356;10.884;2022-10-13T01:35:51;8.20;99.90
24992;DHT22;13014;48.356;10.884;2022-10-13T01:36:30;8.20;99.90
24992;DHT22;13014;48.356;10.884;2022-10-13T01:38:04;8.20;99.90
24992;DHT22;13014;48.356;10.884;2022-10-13T01:39:15;8.30;99.90
24992;DHT22;13014;48.356;10.884;2022-10-13T01:39:51;8.30;99.90
24992;DHT22;13014;48.356;10.884;2022-10-13T01:40:25;8.30;99.90
24992;DHT22;13014;48.356;10.884;2022-10-13T01:41:56;8.20;99.90
24992;DHT22;13014;48.356;10.884;2022-10-13T01:42:31;8.20;99.90
24992;DHT22;13014;48.356;10.884;2022-10-13T01:43:13;8.20;99.90
24992;DHT22;13014;48.356;10.884;2022-10-13T01:43:50;8.30;99.90
24992;DHT22;13014;48.356;10.884;2022-10-13T01:44:29;8.30;99.90
24992;DHT22;13014;48.356;10.884;2022-10-13T01:45:18;8.20;99.90
24992;DHT22;13014;48.356;10.884;2022-10-13T01:45:53;8.30;99.90
24992;DHT22;13014;48.356;10.884;2022-10-13T01:46:31;8.30;99.90
24992;DHT22;13014;48.356;10.884;2022-10-13T01:47:03;8.30;99.90
24992;DHT22;13014;48.356;10.884;2022-10-13T01:47:35;8.30;99.90
24992;DHT22;13014;48.356;10.884;2022-10-13T01:48:06;8.30;99.90
24992;DHT22;13014;48.356;10.884;2022-10-13T01:48:37;8.30;99.90
24992;DHT22;13014;48.356;10.884;2022-10-13T01:49:09;8.30;99.90
24992;DHT22;13014;48.356;10.884;2022-10-13T01:49:41;8.30;99.90
24992;DHT22;13014;48.356;10.884;2022-10-13T01:50:13;8.30;99.90
24992;DHT22;13014;48.356;10.884;2022-10-13T01:50:45;8.30;99.90
24992;DHT22;13014;48.356;10.884;2022-10-13T01:51:17;8.30;99.90
24992;DHT22;13014;48.356;10.884;2022-10-13T01:52:33;8.40;99.90
24992;DHT22;13014;48.356;10.884;2022-10-13T01:53:04;8.40;99.90
24992;DHT22;13014;48.356;10.884;2022-10-13T01:53:35;8.40;99.90
24992;DHT22;13014;48.356;10.884;2022-10-13T01:54:06;8.40;99.90
24992;DHT22;13014;48.356;10.884;2022-10-13T01:54:36;8.40;99.90
24992;DHT22;13014;48.356;10.884;2022-10-13T01:55:08;8.40;99.90
24992;DHT22;13014;48.356;10.884;2022-10-13T01:55:52;8.50;99.90
24992;DHT22;13014;48.356;10.884;2022-10-13T01:56:26;8.40;99.90
24992;DHT22;13014;48.356;10.884;2022-10-13T01:56:57;8.40;99.90
24992;DHT22;13014;48.356;10.884;2022-10-13T01:57:29;8.40;99.90
24992;DHT22;13014;48.356;10.884;2022-10-13T01:58:00;8.40;99.90
24992;DHT22;13014;48.356;10.884;2022-10-13T01:58:32;8.40;99.90
24992;DHT22;13014;48.356;10.884;2022-10-13T01:59:07;8.40;99.90
24992;DHT22;13014;48.356;10.884;2022-10-13T01:59:39;8.40;99.90
24992;DHT22;13014;48.356;10.884;2022-10-13T02:00:42;8.40;99.90
24992;DHT22;13014;48.356;10.884;2022-10-13T02:03:12;8.50;99.90
24992;DHT22;13014;48.356;10.884;2022-10-13T02:05:43;8.50;99.90
24992;DHT22;13014;48.356;10.884;2022-10-13T02:06:20;8.50;99.90
24992;DHT22;13014;48.356;10.884;2022-10-13T02:06:53;8.50;99.90
24992;DHT22;13014;48.356;10.884;2022-10-13T02:07:34;8.50;99.90
24992;DHT22;13014;48.356;10.884;2022-10-13T02:08:14;8.50;99.90
24992;DHT22;13014;48.356;10.884;2022-10-13T02:09:25;8.50;99.90
24992;DHT22;13014;48.356;10.884;2022-10-13T02:10:51;8.50;99.90
24992;DHT22;13014;48.356;10.884;2022-10-13T02:11:23;8.50;99.90
24992;DHT22;13014;48.356;10.884;2022-10-13T02:11:56;8.50;99.90
24992;DHT22;13014;48.356;10.884;2022-10-13T02:12:45;8.50;99.90
24992;DHT22;13014;48.356;10.884;2022-10-13T02:13:21;8.50;99.90
24992;DHT22;13014;48.356;10.884;2022-10-13T02:14:33;8.50;99.90
24992;DHT22;13014;48.356;10.884;2022-10-13T02:15:04;8.50;99.90
24992;DHT22;13014;48.356;10.884;2022-10-13T02:15:42;8.50;99.90
24992;DHT22;13014;48.356;10.884;2022-10-13T02:16:17;8.50;99.90
24992;DHT22;13014;48.356;10.884;2022-10-13T02:16:50;8.50;99.90
24992;DHT22;13014;48.356;10.884;2022-10-13T02:17:23;8.60;99.90
24992;DHT22;13014;48.356;10.884;2022-10-13T02:17:59;8.60;99.90
24992;DHT22;13014;48.356;10.884;2022-10-13T02:18:33;8.60;99.90
24992;DHT22;13014;48.356;10.884;2022-10-13T02:19:05;8.60;99.90
24992;DHT22;13014;48.356;10.884;2022-10-13T02:19:37;8.60;99.90
24992;DHT22;13014;48.356;10.884;2022-10-13T02:20:09;8.60;99.90
24992;DHT22;13014;48.356;10.884;2022-10-13T02:20:48;8.70;99.90
24992;DHT22;13014;48.356;10.884;2022-10-13T02:21:23;8.70;99.90
24992;DHT22;13014;48.356;10.884;2022-10-13T02:21:54;8.70;99.90
24992;DHT22;13014;48.356;10.884;2022-10-13T02:22:28;8.60;99.90
24992;DHT22;13014;48.356;10.884;2022-10-13T02:23:06;8.60;99.90
24992;DHT22;13014;48.356;10.884;2022-10-13T02:23:38;8.60;99.90
24992;DHT22;13014;48.356;10.884;2022-10-13T02:24:09;8.60;99.90
24992;DHT22;13014;48.356;10.884;2022-10-13T02:24:40;8.60;99.90
24992;DHT22;13014;48.356;10.884;2022-10-13T02:25:11;8.60;99.90
24992;DHT22;13014;48.356;10.884;2022-10-13T02:25:42;8.60;99.90
24992;DHT22;13014;48.356;10.884;2022-10-13T02:26:12;8.60;99.90
24992;DHT22;13014;48.356;10.884;2022-10-13T02:26:43;8.60;99.90
24992;DHT22;13014;48.356;10.884;2022-10-13T02:27:16;8.60;99.90
24992;DHT22;13014;48.356;10.884;2022-10-13T02:27:47;8.60;99.90
24992;DHT22;13014;48.356;10.884;2022-10-13T02:28:17;8.60;99.90
24992;DHT22;13014;48.356;10.884;2022-10-13T02:28:48;8.70;99.90
24992;DHT22;13014;48.356;10.884;2022-10-13T02:29:19;8.70;99.90
24992;DHT22;13014;48.356;10.884;2022-10-13T02:29:54;8.70;99.90
24992;DHT22;13014;48.356;10.884;2022-10-13T02:30:26;8.70;99.90
24992;DHT22;13014;48.356;10.884;2022-10-13T02:30:57;8.70;99.90
24992;DHT22;13014;48.356;10.884;2022-10-13T02:31:28;8.60;99.90
24992;DHT22;13014;48.356;10.884;2022-10-13T02:31:58;8.60;99.90
24992;DHT22;13014;48.356;10.884;2022-10-13T02:32:36;8.70;99.90
24992;DHT22;13014;48.356;10.884;2022-10-13T02:33:07;8.70;99.90
24992;DHT22;13014;48.356;10.884;2022-10-13T02:33:38;8.70;99.90
24992;DHT22;13014;48.356;10.884;2022-10-13T02:34:09;8.70;99.90
24992;DHT22;13014;48.356;10.884;2022-10-13T02:34:39;8.70;99.90
24992;DHT22;13014;48.356;10.884;2022-10-13T02:35:10;8.70;99.90
24992;DHT22;13014;48.356;10.884;2022-10-13T02:35:41;8.70;99.90
24992;DHT22;13014;48.356;10.884;2022-10-13T02:36:12;8.70;99.90
24992;DHT22;13014;48.356;10.884;2022-10-13T02:36:42;8.70;99.90
24992;DHT22;13014;48.356;10.884;2022-10-13T02:37:13;8.70;99.90
24992;DHT22;13014;48.356;10.884;2022-10-13T02:37:44;8.70;99.90
24992;DHT22;13014;48.356;10.884;2022-10-13T02:38:14;8.70;99.90
24992;DHT22;13014;48.356;10.884;2022-10-13T02:38:45;8.70;99.90
24992;DHT22;13014;48.356;10.884;2022-10-13T02:39:15;8.70;99.90
24992;DHT22;13014;48.356;10.884;2022-10-13T02:39:47;8.80;99.90
24992;DHT22;13014;48.356;10.884;2022-10-13T02:40:17;8.80;99.90
24992;DHT22;13014;48.356;10.884;2022-10-13T02:40:48;8.80;99.90
24992;DHT22;13014;48.356;10.884;2022-10-13T02:41:18;8.70;99.90
24992;DHT22;13014;48.356;10.884;2022-10-13T02:41:49;8.80;99.90
24992;DHT22;13014;48.356;10.884;2022-10-13T02:42:20;8.80;99.90
24992;DHT22;13014;48.356;10.884;2022-10-13T02:42:50;8.80;99.90
24992;DHT22;13014;48.356;10.884;2022-10-13T02:43:21;8.80;99.90
24992;DHT22;13014;48.356;10.884;2022-10-13T02:43:51;8.80;99.90
24992;DHT22;13014;48.356;10.884;2022-10-13T02:44:22;8.80;99.90
24992;DHT22;13014;48.356;10.884;2022-10-13T02:44:54;8.80;99.90
24992;DHT22;13014;48.356;10.884;2022-10-13T02:45:24;8.80;99.90
24992;DHT22;13014;48.356;10.884;2022-10-13T02:45:55;8.80;99.90
24992;DHT22;13014;48.356;10.884;2022-10-13T02:46:26;8.80;99.90
24992;DHT22;13014;48.356;10.884;2022-10-13T02:46:56;8.80;99.90
24992;DHT22;13014;48.356;10.884;2022-10-13T02:47:27;8.80;99.90
24992;DHT22;13014;48.356;10.884;2022-10-13T02:47:58;8.80;99.90
24992;DHT22;13014;48.356;10.884;2022-10-13T02:48:28;8.80;99.90
24992;DHT22;13014;48.356;10.884;2022-10-13T02:48:59;8.80;99.90
24992;DHT22;13014;48.356;10.884;2022-10-13T02:49:29;8.80;99.90
24992;DHT22;13014;48.356;10.884;2022-10-13T02:50:00;8.80;99.90
24992;DHT22;13014;48.356;10.884;2022-10-13T02:50:31;8.80;99.90
24992;DHT22;13014;48.356;10.884;2022-10-13T02:51:01;8.80;99.90
24992;DHT22;13014;48.356;10.884;2022-10-13T02:51:32;8.80;99.90
24992;DHT22;13014;48.356;10.884;2022-10-13T02:52:03;8.80;99.90
24992;DHT22;13014;48.356;10.884;2022-10-13T02:52:33;8.80;99.90
24992;DHT22;13014;48.356;10.884;2022-10-13T02:53:04;8.80;99.90
24992;DHT22;13014;48.356;10.884;2022-10-13T02:53:35;8.80;99.90
24992;DHT22;13014;48.356;10.884;2022-10-13T02:54:05;8.80;99.90
24992;DHT22;13014;48.356;10.884;2022-10-13T02:54:36;8.70;99.90
24992;DHT22;13014;48.356;10.884;2022-10-13T02:55:06;8.80;99.90
24992;DHT22;13014;48.356;10.884;2022-10-13T02:55:37;8.70;99.90
24992;DHT22;13014;48.356;10.884;2022-10-13T02:56:08;8.70;99.90
24992;DHT22;13014;48.356;10.884;2022-10-13T02:56:38;8.70;99.90
24992;DHT22;13014;48.356;10.884;2022-10-13T02:57:09;8.70;99.90
24992;DHT22;13014;48.356;10.884;2022-10-13T02:57:39;8.70;99.90
24992;DHT22;13014;48.356;10.884;2022-10-13T02:58:10;8.80;99.90
24992;DHT22;13014;48.356;10.884;2022-10-13T02:58:41;8.80;99.90
24992;DHT22;13014;48.356;10.884;2022-10-13T02:59:11;8.70;99.90
24992;DHT22;13014;48.356;10.884;2022-10-13T02:59:42;8.80;99.90
24992;DHT22;13014;48.356;10.884;2022-10-13T03:00:13;8.70;99.90
24992;DHT22;13014;48.356;10.884;2022-10-13T03:00:44;8.70;99.90
24992;DHT22;13014;48.356;10.884;2022-10-13T03:01:15;8.70;99.90
24992;DHT22;13014;48.356;10.884;2022-10-13T03:01:46;8.80;99.90
24992;DHT22;13014;48.356;10.884;2022-10-13T03:02:17;8.70;99.90
24992;DHT22;13014;48.356;10.884;2022-10-13T03:02:56;8.70;99.90
24992;DHT22;13014;48.356;10.884;2022-10-13T03:03:27;8.80;99.90
24992;DHT22;13014;48.356;10.884;2022-10-13T03:03:58;8.80;99.90
24992;DHT22;13014;48.356;10.884;2022-10-13T03:04:29;8.80;99.90
24992;DHT22;13014;48.356;10.884;2022-10-13T03:04:59;8.80;99.90
24992;DHT22;13014;48.356;10.884;2022-10-13T03:05:30;8.80;99.90
24992;DHT22;13014;48.356;10.884;2022-10-13T03:06:07;8.80;99.90
24992;DHT22;13014;48.356;10.884;2022-10-13T03:06:37;8.80;99.90
24992;DHT22;13014;48.356;10.884;2022-10-13T03:07:08;8.80;99.90
24992;DHT22;13014;48.356;10.884;2022-10-13T03:07:39;8.80;99.90
24992;DHT22;13014;48.356;10.884;2022-10-13T03:08:09;8.80;99.90
24992;DHT22;13014;48.356;10.884;2022-10-13T03:08:42;8.80;99.90
24992;DHT22;13014;48.356;10.884;2022-10-13T03:09:13;8.90;99.90
24992;DHT22;13014;48.356;10.884;2022-10-13T03:09:44;8.90;99.90
24992;DHT22;13014;48.356;10.884;2022-10-13T03:10:14;8.90;99.90
24992;DHT22;13014;48.356;10.884;2022-10-13T03:10:45;8.90;99.90
24992;DHT22;13014;48.356;10.884;2022-10-13T03:11:16;8.90;99.90
24992;DHT22;13014;48.356;10.884;2022-10-13T03:11:46;8.90;99.90
24992;DHT22;13014;48.356;10.884;2022-10-13T03:12:17;8.90;99.90
24992;DHT22;13014;48.356;10.884;2022-10-13T03:12:47;8.90;99.90
24992;DHT22;13014;48.356;10.884;2022-10-13T03:13:18;8.90;99.90
24992;DHT22;13014;48.356;10.884;2022-10-13T03:13:49;8.90;99.90
24992;DHT22;13014;48.356;10.884;2022-10-13T03:14:19;8.90;99.90
24992;DHT22;13014;48.356;10.884;2022-10-13T03:14:50;8.90;99.90
24992;DHT22;13014;48.356;10.884;2022-10-13T03:15:21;8.90;99.90
24992;DHT22;13014;48.356;10.884;2022-10-13T03:15:51;8.90;99.90
24992;DHT22;13014;48.356;10.884;2022-10-13T03:16:22;8.80;99.90
24992;DHT22;13014;48.356;10.884;2022-10-13T03:16:53;8.90;99.90
24992;DHT22;13014;48.356;10.884;2022-10-13T03:17:23;8.80;99.90
24992;DHT22;13014;48.356;10.884;2022-10-13T03:17:55;8.80;99.90
24992;DHT22;13014;48.356;10.884;2022-10-13T03:18:25;8.90;99.90
24992;DHT22;13014;48.356;10.884;2022-10-13T03:18:56;8.80;99.90
24992;DHT22;13014;48.356;10.884;2022-10-13T03:19:26;8.90;99.90
24992;DHT22;13014;48.356;10.884;2022-10-13T03:19:57;8.90;99.90
24992;DHT22;13014;48.356;10.884;2022-10-13T03:20:28;8.90;99.90
24992;DHT22;13014;48.356;10.884;2022-10-13T03:20:59;8.90;99.90
24992;DHT22;13014;48.356;10.884;2022-10-13T03:21:30;8.90;99.90
24992;DHT22;13014;48.356;10.884;2022-10-13T03:22:01;8.90;99.90
24992;DHT22;13014;48.356;10.884;2022-10-13T03:22:31;8.90;99.90
24992;DHT22;13014;48.356;10.884;2022-10-13T03:23:02;8.90;99.90
24992;DHT22;13014;48.356;10.884;2022-10-13T03:23:32;8.90;99.90
24992;DHT22;13014;48.356;10.884;2022-10-13T03:24:03;8.90;99.90
24992;DHT22;13014;48.356;10.884;2022-10-13T03:24:35;8.90;99.90
24992;DHT22;13014;48.356;10.884;2022-10-13T03:25:05;8.90;99.90
24992;DHT22;13014;48.356;10.884;2022-10-13T03:25:36;8.90;99.90
24992;DHT22;13014;48.356;10.884;2022-10-13T03:26:07;8.90;99.90
24992;DHT22;13014;48.356;10.884;2022-10-13T03:26:39;8.90;99.90
24992;DHT22;13014;48.356;10.884;2022-10-13T03:27:09;9.00;99.90
24992;DHT22;13014;48.356;10.884;2022-10-13T03:27:40;9.00;99.90
24992;DHT22;13014;48.356;10.884;2022-10-13T03:28:11;8.90;99.90
24992;DHT22;13014;48.356;10.884;2022-10-13T03:28:41;8.90;99.90
24992;DHT22;13014;48.356;10.884;2022-10-13T03:29:12;9.00;99.90
24992;DHT22;13014;48.356;10.884;2022-10-13T03:29:44;9.00;99.90
24992;DHT22;13014;48.356;10.884;2022-10-13T03:30:14;9.00;99.90
24992;DHT22;13014;48.356;10.884;2022-10-13T03:30:45;9.00;99.90
24992;DHT22;13014;48.356;10.884;2022-10-13T03:31:16;9.00;99.90
24992;DHT22;13014;48.356;10.884;2022-10-13T03:31:47;9.00;99.90
24992;DHT22;13014;48.356;10.884;2022-10-13T03:32:17;9.00;99.90
24992;DHT22;13014;48.356;10.884;2022-10-13T03:32:48;9.00;99.90
24992;DHT22;13014;48.356;10.884;2022-10-13T03:33:18;9.00;99.90
24992;DHT22;13014;48.356;10.884;2022-10-13T03:33:49;9.00;99.90
24992;DHT22;13014;48.356;10.884;2022-10-13T03:34:20;9.00;99.90
24992;DHT22;13014;48.356;10.884;2022-10-13T03:34:51;9.00;99.90
24992;DHT22;13014;48.356;10.884;2022-10-13T03:35:21;9.00;99.90
24992;DHT22;13014;48.356;10.884;2022-10-13T03:35:52;9.00;99.90
24992;DHT22;13014;48.356;10.884;2022-10-13T03:36:23;9.00;99.90
24992;DHT22;13014;48.356;10.884;2022-10-13T03:36:53;9.00;99.90
24992;DHT22;13014;48.356;10.884;2022-10-13T03:37:24;9.00;99.90
24992;DHT22;13014;48.356;10.884;2022-10-13T03:37:54;9.00;99.90
24992;DHT22;13014;48.356;10.884;2022-10-13T03:38:25;9.00;99.90
24992;DHT22;13014;48.356;10.884;2022-10-13T03:38:55;9.00;99.90
24992;DHT22;13014;48.356;10.884;2022-10-13T03:39:26;9.00;99.90
24992;DHT22;13014;48.356;10.884;2022-10-13T03:39:56;9.00;99.90
24992;DHT22;13014;48.356;10.884;2022-10-13T03:40:27;9.00;99.90
24992;DHT22;13014;48.356;10.884;2022-10-13T03:41:03;9.00;99.90
24992;DHT22;13014;48.356;10.884;2022-10-13T03:41:33;9.00;99.90
24992;DHT22;13014;48.356;10.884;2022-10-13T03:42:04;9.00;99.90
24992;DHT22;13014;48.356;10.884;2022-10-13T03:42:35;9.00;99.90
24992;DHT22;13014;48.356;10.884;2022-10-13T03:43:06;9.00;99.90
24992;DHT22;13014;48.356;10.884;2022-10-13T03:43:36;9.00;99.90
24992;DHT22;13014;48.356;10.884;2022-10-13T03:44:08;9.00;99.90
24992;DHT22;13014;48.356;10.884;2022-10-13T03:44:40;9.00;99.90
24992;DHT22;13014;48.356;10.884;2022-10-13T03:45:10;9.00;99.90
24992;DHT22;13014;48.356;10.884;2022-10-13T03:45:41;9.00;99.90
24992;DHT22;13014;48.356;10.884;2022-10-13T03:46:12;9.00;99.90
24992;DHT22;13014;48.356;10.884;2022-10-13T03:46:43;9.00;99.90
24992;DHT22;13014;48.356;10.884;2022-10-13T03:47:14;9.00;99.90
24992;DHT22;13014;48.356;10.884;2022-10-13T03:47:44;9.00;99.90
24992;DHT22;13014;48.356;10.884;2022-10-13T03:48:15;9.10;99.90
24992;DHT22;13014;48.356;10.884;2022-10-13T03:48:46;9.10;99.90
24992;DHT22;13014;48.356;10.884;2022-10-13T03:49:16;9.10;99.90
24992;DHT22;13014;48.356;10.884;2022-10-13T03:49:48;9.10;99.90
24992;DHT22;13014;48.356;10.884;2022-10-13T03:50:18;9.10;99.90
24992;DHT22;13014;48.356;10.884;2022-10-13T03:50:49;9.10;99.90
24992;DHT22;13014;48.356;10.884;2022-10-13T03:51:20;9.10;99.90
24992;DHT22;13014;48.356;10.884;2022-10-13T03:51:51;9.10;99.90
24992;DHT22;13014;48.356;10.884;2022-10-13T03:52:21;9.10;99.90
24992;DHT22;13014;48.356;10.884;2022-10-13T03:52:52;9.10;99.90
24992;DHT22;13014;48.356;10.884;2022-10-13T03:53:23;9.10;99.90
24992;DHT22;13014;48.356;10.884;2022-10-13T03:53:53;9.10;99.90
24992;DHT22;13014;48.356;10.884;2022-10-13T03:54:24;9.10;99.90
24992;DHT22;13014;48.356;10.884;2022-10-13T03:54:55;9.10;99.90
24992;DHT22;13014;48.356;10.884;2022-10-13T03:55:25;9.20;99.90
24992;DHT22;13014;48.356;10.884;2022-10-13T03:55:56;9.10;99.90
24992;DHT22;13014;48.356;10.884;2022-10-13T03:56:27;9.20;99.90
24992;DHT22;13014;48.356;10.884;2022-10-13T03:56:57;9.10;99.90
24992;DHT22;13014;48.356;10.884;2022-10-13T03:57:28;9.20;99.90
24992;DHT22;13014;48.356;10.884;2022-10-13T03:57:58;9.20;99.90
24992;DHT22;13014;48.356;10.884;2022-10-13T03:58:29;9.20;99.90